createdAt,value
2022-09-23T00:01:04.534Z,99372.47
2022-09-23T00:03:32.191Z,99369.59
2022-09-23T00:06:04.510Z,99370.13
2022-09-23T00:08:32.308Z,99372.63
2022-09-23T00:11:16.208Z,99364.66
2022-09-23T00:13:44.904Z,99360.06
2022-09-23T00:16:14.500Z,99369.41
2022-09-23T00:18:42.435Z,99363.88
2022-09-23T00:21:11.102Z,99369.78
2022-09-23T00:23:39.062Z,99366.69
2022-09-23T00:26:06.987Z,99368.41
2022-09-23T00:28:34.731Z,99363.19
2022-09-23T00:31:02.879Z,99371.13
2022-09-23T00:33:30.213Z,99371.25
2022-09-23T00:36:06.017Z,99370.22
2022-09-23T00:38:34.416Z,99374.22
2022-09-23T00:41:01.589Z,99362.38
2022-09-23T00:43:41.594Z,99373.81
2022-09-23T00:46:18.053Z,99379.22
2022-09-23T00:48:46.435Z,99373.22
2022-09-23T00:51:18.036Z,99377.84
2022-09-23T00:53:47.748Z,99376.88
2022-09-23T00:56:15.923Z,99373.72
2022-09-23T00:58:44.752Z,99382.16
2022-09-23T01:01:14.169Z,99378.19
2022-09-23T01:03:43.606Z,99383.06
2022-09-23T01:06:11.345Z,99382.19
2022-09-23T01:08:39.118Z,99382.19
2022-09-23T01:11:06.350Z,99379.44
2022-09-23T01:13:38.512Z,99373.25
2022-09-23T01:16:19.190Z,99382.28
2022-09-23T01:18:46.839Z,99378.00
2022-09-23T01:21:17.077Z,99373.41
2022-09-23T01:23:53.408Z,99371.66
2022-09-23T01:26:33.970Z,99365.75
2022-09-23T01:29:04.029Z,99373.25
2022-09-23T01:31:31.202Z,99373.41
2022-09-23T01:34:11.331Z,99381.59
2022-09-23T01:36:39.543Z,99378.31
2022-09-23T01:39:24.868Z,99380.91
2022-09-23T01:42:07.898Z,99383.63
2022-09-23T01:44:43.927Z,99388.63
2022-09-23T01:47:14.884Z,99383.47
2022-09-23T01:49:51.321Z,99389.63
2022-09-23T01:52:35.650Z,99390.56
2022-09-23T01:55:08.922Z,99386.22
2022-09-23T01:57:49.069Z,99387.06
2022-09-23T02:00:17.499Z,99387.91
2022-09-23T02:02:59.589Z,99387.75
2022-09-23T02:05:33.710Z,99386.88
2022-09-23T02:08:09.073Z,99397.94
2022-09-23T02:10:47.770Z,99388.19
2022-09-23T02:13:18.552Z,99391.97
2022-09-23T02:15:49.912Z,99397.25
2022-09-23T02:18:20.769Z,99389.22
2022-09-23T02:20:51.224Z,99381.97
2022-09-23T02:23:23.725Z,99387.13
2022-09-23T02:26:03.631Z,99392.47
2022-09-23T02:28:49.514Z,99382.84
2022-09-23T02:31:28.141Z,99386.50
2022-09-23T02:34:02.718Z,99388.81
2022-09-23T02:36:31.739Z,99386.03
2022-09-23T02:39:04.049Z,99383.28
2022-09-23T02:41:37.560Z,99386.09
2022-09-23T02:44:10.379Z,99389.09
2022-09-23T02:46:38.391Z,99381.25
2022-09-23T02:49:17.742Z,99382.28
2022-09-23T02:51:45.749Z,99380.75
2022-09-23T02:54:15.144Z,99379.03
2022-09-23T02:56:42.738Z,99383.38
2022-09-23T02:59:10.888Z,99386.03
2022-09-23T03:01:56.766Z,99386.03
2022-09-23T03:04:31.988Z,99378.88
2022-09-23T03:07:19.266Z,99379.97
2022-09-23T03:09:53.031Z,99380.75
2022-09-23T03:12:27.238Z,99387.69
2022-09-23T03:15:10.257Z,99384.25
2022-09-23T03:17:43.707Z,99383.38
2022-09-23T03:20:15.749Z,99391.19
2022-09-23T03:22:49.002Z,99386.81
2022-09-23T03:25:19.465Z,99391.09
2022-09-23T03:27:46.682Z,99388.91
2022-09-23T03:30:14.578Z,99392.81
2022-09-23T03:32:44.612Z,99393.09
2022-09-23T03:35:12.538Z,99393.69
2022-09-23T03:37:41.997Z,99391.72
2022-09-23T03:40:09.503Z,99392.50
2022-09-23T03:42:38.628Z,99378.66
2022-09-23T03:45:09.492Z,99384.81
2022-09-23T03:47:39.631Z,99379.44
2022-09-23T03:50:07.184Z,99378.66
2022-09-23T03:52:34.492Z,99381.47
2022-09-23T03:55:01.779Z,99373.69
2022-09-23T03:57:30.347Z,99372.13
2022-09-23T03:59:57.516Z,99369.72
2022-09-23T04:02:25.417Z,99369.97
2022-09-23T04:04:52.741Z,99366.72
2022-09-23T04:07:20.753Z,99375.56
2022-09-23T04:09:48.247Z,99368.41
2022-09-23T04:12:16.265Z,99362.88
2022-09-23T04:14:43.743Z,99369.19
2022-09-23T04:17:11.836Z,99367.63
2022-09-23T04:19:39.369Z,99375.66
2022-09-23T04:22:07.020Z,99379.16
2022-09-23T04:24:34.580Z,99359.94
2022-09-23T04:27:02.141Z,99360.78
2022-09-23T04:29:29.631Z,99359.78
2022-09-23T04:31:58.039Z,99349.56
2022-09-23T04:34:25.219Z,99350.06
2022-09-23T04:36:52.452Z,99342.56
2022-09-23T04:39:19.914Z,99346.78
2022-09-23T04:41:47.577Z,99345.94
2022-09-23T04:44:15.314Z,99340.63
2022-09-23T04:46:43.836Z,99339.06
2022-09-23T04:49:11.362Z,99342.31
2022-09-23T04:51:40.680Z,99334.03
2022-09-23T04:54:08.210Z,99266.09
2022-09-23T04:56:35.432Z,99334.66
2022-09-23T04:59:02.900Z,99329.53
2022-09-23T05:01:31.851Z,99334.06
2022-09-23T05:04:03.141Z,99342.47
2022-09-23T05:06:31.610Z,99343.16
2022-09-23T05:08:59.570Z,99344.41
2022-09-23T05:11:27.373Z,99342.16
2022-09-23T05:13:54.716Z,99344.97
2022-09-23T05:16:25.783Z,99342.72
2022-09-23T05:18:53.422Z,99344.88
2022-09-23T05:21:21.944Z,99340.25
2022-09-23T05:23:50.308Z,99345.66
2022-09-23T05:26:17.519Z,99345.47
2022-09-23T05:28:44.756Z,99336.38
2022-09-23T05:31:20.010Z,99345.22
2022-09-23T05:33:49.307Z,99342.13
2022-09-23T05:36:20.231Z,99342.25
2022-09-23T05:38:49.368Z,99341.22
2022-09-23T05:41:16.689Z,99349.47
2022-09-23T05:43:44.277Z,99348.13
2022-09-23T05:46:15.852Z,99342.06
2022-09-23T05:48:45.760Z,99340.53
2022-09-23T05:51:20.331Z,99340.13
2022-09-23T05:53:48.805Z,99344.88
2022-09-23T05:56:17.868Z,99344.19
2022-09-23T05:58:45.088Z,99338.84
2022-09-23T06:01:14.417Z,99349.94
2022-09-23T06:03:41.660Z,99346.22
2022-09-23T06:06:12.951Z,99340.88
2022-09-23T06:08:40.560Z,99347.09
2022-09-23T06:11:08.509Z,99347.56
2022-09-23T06:13:39.173Z,99348.81
2022-09-23T06:16:08.295Z,99337.19
2022-09-23T06:18:35.861Z,99337.31
2022-09-23T06:21:03.531Z,99340.38
2022-09-23T06:23:31.343Z,99342.69
2022-09-23T06:26:02.329Z,99343.28
2022-09-23T06:28:31.405Z,99340.13
2022-09-23T06:31:03.667Z,99354.03
2022-09-23T06:33:36.488Z,99361.41
2022-09-23T06:36:05.839Z,99364.44
2022-09-23T06:38:36.726Z,99365.38
2022-09-23T06:41:04.111Z,99369.63
2022-09-23T06:43:31.644Z,99360.81
2022-09-23T06:45:59.764Z,99360.34
2022-09-23T06:48:28.105Z,99362.91
2022-09-23T06:50:58.871Z,99355.16
2022-09-23T06:53:26.000Z,99357.41
2022-09-23T06:56:04.643Z,99353.13
2022-09-23T06:58:32.752Z,99352.16
2022-09-23T07:01:26.554Z,99350.78
2022-09-23T07:03:54.408Z,99341.91
2022-09-23T07:06:21.747Z,99344.72
2022-09-23T07:08:49.204Z,99357.41
2022-09-23T07:11:19.463Z,99350.91
2022-09-23T07:13:46.774Z,99350.66
2022-09-23T07:16:14.628Z,99333.81
2022-09-23T07:18:42.911Z,99340.75
2022-09-23T07:21:15.471Z,99347.41
2022-09-23T07:23:43.868Z,99349.41
2022-09-23T07:26:11.101Z,99342.72
2022-09-23T07:28:38.530Z,99341.91
2022-09-23T07:31:07.703Z,99342.28
2022-09-23T07:33:36.567Z,99341.91
2022-09-23T07:36:05.341Z,99340.94
2022-09-23T07:38:32.878Z,99339.97
2022-09-23T07:41:07.764Z,99335.34
2022-09-23T07:43:35.652Z,99331.00
2022-09-23T07:46:05.425Z,99336.56
2022-09-23T07:48:34.507Z,99334.91
2022-09-23T07:51:12.952Z,99345.97
2022-09-23T07:53:40.342Z,99346.16
2022-09-23T07:56:07.602Z,99328.72
2022-09-23T07:58:35.391Z,99330.38
2022-09-23T08:01:06.688Z,99344.84
2022-09-23T08:03:34.009Z,99331.34
2022-09-23T08:06:05.642Z,99336.81
2022-09-23T08:08:33.142Z,99333.44
2022-09-23T08:11:01.635Z,99336.38
2022-09-23T08:13:28.891Z,99334.56
2022-09-23T08:15:56.215Z,99331.75
2022-09-23T08:18:23.566Z,99323.94
2022-09-23T08:20:51.209Z,99328.81
2022-09-23T08:23:19.710Z,99329.88
2022-09-23T08:25:49.199Z,99331.94
2022-09-23T08:28:18.809Z,99316.31
2022-09-23T08:30:48.695Z,99323.81
2022-09-23T08:33:19.630Z,99317.06
2022-09-23T08:35:50.058Z,99314.50
2022-09-23T08:38:17.543Z,99321.00
2022-09-23T08:40:47.551Z,99324.31
2022-09-23T08:43:19.636Z,99329.22
2022-09-23T08:45:46.919Z,99330.94
2022-09-23T08:48:16.147Z,99326.59
2022-09-23T08:50:45.604Z,99321.50
2022-09-23T08:53:22.023Z,99323.81
2022-09-23T08:55:52.015Z,99342.28
2022-09-23T08:58:26.500Z,99345.69
2022-09-23T09:01:09.799Z,99352.03
2022-09-23T09:03:55.746Z,99344.00
2022-09-23T09:06:45.589Z,99354.72
2022-09-23T09:09:24.699Z,99347.50
2022-09-23T09:11:55.179Z,99335.28
2022-09-23T09:14:30.454Z,99330.84
2022-09-23T09:17:01.526Z,99330.97
2022-09-23T09:19:30.644Z,99314.50
2022-09-23T09:21:58.264Z,99323.25
2022-09-23T09:24:34.564Z,99322.19
2022-09-23T09:27:09.375Z,99309.72
2022-09-23T09:29:39.340Z,99301.94
2022-09-23T09:32:15.762Z,99293.41
2022-09-23T09:34:49.660Z,99287.00
2022-09-23T09:37:19.852Z,99284.34
2022-09-23T09:39:47.296Z,99285.72
2022-09-23T09:42:35.639Z,99299.66
2022-09-23T09:45:04.678Z,99294.59
2022-09-23T09:47:50.114Z,99294.34
2022-09-23T09:50:22.304Z,99300.56
2022-09-23T09:52:49.499Z,99303.56
2022-09-23T09:55:23.277Z,99301.47
2022-09-23T09:57:50.409Z,99298.91
2022-09-23T10:00:27.069Z,99294.25
2022-09-23T10:02:55.274Z,99304.25
2022-09-23T10:05:27.902Z,99307.25
2022-09-23T10:07:55.455Z,99303.84
2022-09-23T10:10:32.745Z,99308.31
2022-09-23T10:13:14.870Z,99309.34
2022-09-23T10:15:45.046Z,99297.16
2022-09-23T10:18:20.810Z,99302.63
2022-09-23T10:20:48.366Z,99304.97
2022-09-23T10:23:18.121Z,99298.59
2022-09-23T10:25:55.872Z,99304.16
2022-09-23T10:28:38.441Z,99297.75
2022-09-23T10:31:07.195Z,99304.88
2022-09-23T10:33:34.494Z,99302.91
2022-09-23T10:36:02.042Z,99300.38
2022-09-23T10:38:29.384Z,99298.69
2022-09-23T10:41:15.312Z,99286.56
2022-09-23T10:44:10.292Z,99280.47
2022-09-23T10:46:50.713Z,99271.13
2022-09-23T10:49:21.200Z,99265.66
2022-09-23T10:52:06.934Z,99264.59
2022-09-23T10:54:34.216Z,99264.69
2022-09-23T10:57:27.614Z,99255.31
2022-09-23T11:00:24.481Z,99253.50
2022-09-23T11:03:03.590Z,99257.81
2022-09-23T11:05:38.721Z,99257.66
2022-09-23T11:08:24.709Z,99253.22
2022-09-23T11:11:11.772Z,99250.94
2022-09-23T11:13:45.734Z,99240.44
2022-09-23T11:16:18.765Z,99244.13
2022-09-23T11:18:51.642Z,99233.19
2022-09-23T11:21:21.914Z,99234.06
2022-09-23T11:24:07.695Z,99229.84
2022-09-23T11:26:57.418Z,99229.28
2022-09-23T11:29:37.598Z,99237.03
2022-09-23T11:32:04.843Z,99237.16
2022-09-23T11:34:52.721Z,99231.03
2022-09-23T11:37:25.996Z,99236.31
2022-09-23T11:39:56.520Z,99234.25
2022-09-23T11:42:27.607Z,99231.81
2022-09-23T11:44:59.682Z,99221.38
2022-09-23T11:47:30.433Z,99218.66
2022-09-23T11:50:03.250Z,99216.78
2022-09-23T11:52:42.767Z,99222.78
2022-09-23T11:55:23.254Z,99224.94
2022-09-23T11:57:56.484Z,99238.09
2022-09-23T12:00:36.359Z,99245.94
2022-09-23T12:03:35.170Z,99238.19
2022-09-23T12:06:14.672Z,99225.47
2022-09-23T12:08:41.847Z,99226.44
2022-09-23T12:11:27.816Z,99234.22
2022-09-23T12:14:16.512Z,99254.88
2022-09-23T12:16:52.712Z,99179.13
2022-09-23T12:19:39.105Z,99238.72
2022-09-23T12:22:09.250Z,99244.22
2022-09-23T12:24:39.648Z,99232.81
2022-09-23T12:27:11.508Z,99225.22
2022-09-23T12:29:40.700Z,99230.56
2022-09-23T12:32:10.248Z,99231.13
2022-09-23T12:34:49.230Z,99214.16
2022-09-23T12:37:28.033Z,99214.72
2022-09-23T12:39:59.591Z,99212.34
2022-09-23T12:42:30.879Z,99193.47
2022-09-23T12:45:17.229Z,99189.47
2022-09-23T12:47:44.417Z,99186.66
2022-09-23T12:50:51.143Z,99197.78
2022-09-23T12:53:30.484Z,99193.75
2022-09-23T12:55:59.003Z,99192.81
2022-09-23T12:58:58.341Z,99187.38
2022-09-23T13:01:27.077Z,99181.50
2022-09-23T13:04:14.326Z,99188.59
2022-09-23T13:06:48.287Z,99175.91
2022-09-23T13:09:25.107Z,99175.28
2022-09-23T13:11:53.534Z,99186.44
2022-09-23T13:14:27.402Z,99184.56
2022-09-23T13:16:57.483Z,99184.13
2022-09-23T13:19:27.955Z,99186.53
2022-09-23T13:21:55.216Z,99186.84
2022-09-23T13:24:28.626Z,99185.69
2022-09-23T13:27:14.116Z,99184.41
2022-09-23T13:29:44.771Z,99175.28
2022-09-23T13:32:19.378Z,99187.63
2022-09-23T13:34:53.382Z,99180.91
2022-09-23T13:37:23.002Z,99188.34
2022-09-23T13:39:50.523Z,99177.13
2022-09-23T13:42:27.380Z,99172.19
2022-09-23T13:44:57.751Z,99174.94
2022-09-23T13:47:28.291Z,99171.19
2022-09-23T13:49:55.774Z,99170.09
2022-09-23T13:52:25.553Z,99162.69
2022-09-23T13:54:52.998Z,99161.47
2022-09-23T13:57:37.104Z,99167.09
2022-09-23T14:00:18.198Z,99161.78
2022-09-23T14:02:47.084Z,99161.66
2022-09-23T14:05:22.224Z,99162.44
2022-09-23T14:07:50.943Z,99164.03
2022-09-23T14:10:20.848Z,99156.81
2022-09-23T14:12:49.921Z,99157.94
2022-09-23T14:15:18.986Z,99150.63
2022-09-23T14:17:51.421Z,99141.09
2022-09-23T14:20:20.919Z,99143.88
2022-09-23T14:22:48.210Z,99143.03
2022-09-23T14:25:16.921Z,99136.19
2022-09-23T14:27:45.186Z,99143.13
2022-09-23T14:30:16.397Z,99139.91
2022-09-23T14:32:44.635Z,99133.47
2022-09-23T14:35:25.920Z,99137.47
2022-09-23T14:38:14.086Z,99136.41
2022-09-23T14:40:51.001Z,99136.22
2022-09-23T14:43:18.463Z,99137.53
2022-09-23T14:45:48.012Z,99131.50
2022-09-23T14:48:17.819Z,99130.75
2022-09-23T14:50:50.762Z,99130.94
2022-09-23T14:53:22.577Z,99139.19
2022-09-23T14:55:54.588Z,99130.75
2022-09-23T14:58:24.261Z,99120.13
2022-09-23T15:01:01.782Z,99118.34
2022-09-23T15:03:29.364Z,99110.53
2022-09-23T15:05:58.296Z,99115.31
2022-09-23T15:08:27.586Z,99109.31
2022-09-23T15:10:55.193Z,99107.63
2022-09-23T15:13:30.233Z,99106.94
2022-09-23T15:15:58.191Z,99108.88
2022-09-23T15:18:26.865Z,99109.16
2022-09-23T15:20:55.902Z,99113.91
2022-09-23T15:23:35.311Z,99115.59
2022-09-23T15:26:06.147Z,99115.22
2022-09-23T15:28:33.459Z,99114.91
2022-09-23T15:31:01.273Z,99117.56
2022-09-23T15:33:30.270Z,99118.53
2022-09-23T15:35:58.423Z,99114.56
2022-09-23T15:38:27.413Z,99124.41
2022-09-23T15:40:54.836Z,99127.25
2022-09-23T15:43:23.555Z,99127.72
2022-09-23T15:45:56.318Z,99119.09
2022-09-23T15:48:28.445Z,99118.91
2022-09-23T15:50:55.721Z,99112.09
2022-09-23T15:53:27.548Z,99115.97
2022-09-23T15:55:54.837Z,99108.66
2022-09-23T15:58:22.883Z,99111.31
2022-09-23T16:00:56.634Z,99108.78
2022-09-23T16:03:33.983Z,99114.28
2022-09-23T16:06:03.396Z,99110.81
2022-09-23T16:08:33.212Z,99110.06
2022-09-23T16:11:00.772Z,99105.72
2022-09-23T16:13:28.207Z,99105.13
2022-09-23T16:15:56.533Z,99115.16
2022-09-23T16:18:23.811Z,99110.63
2022-09-23T16:20:51.610Z,99096.88
2022-09-23T16:23:42.981Z,99095.38
2022-09-23T16:26:10.299Z,99101.53
2022-09-23T16:28:38.014Z,99098.09
2022-09-23T16:31:05.691Z,99099.06
2022-09-23T16:33:33.201Z,99099.06
2022-09-23T16:36:01.239Z,99091.47
2022-09-23T16:38:32.894Z,99094.75
2022-09-23T16:41:00.928Z,99089.81
2022-09-23T16:43:35.312Z,99081.09
2022-09-23T16:46:02.629Z,99085.66
2022-09-23T16:48:29.854Z,99083.38
2022-09-23T16:50:57.084Z,99071.56
2022-09-23T16:53:25.703Z,99068.91
2022-09-23T16:55:54.258Z,99073.50
2022-09-23T16:58:21.761Z,99069.09
2022-09-23T17:01:07.275Z,99072.34
2022-09-23T17:03:41.499Z,99071.81
2022-09-23T17:06:15.058Z,99070.94
2022-09-23T17:08:43.138Z,99068.56
2022-09-23T17:11:14.715Z,99062.56
2022-09-23T17:13:42.542Z,99067.03
2022-09-23T17:16:11.898Z,99066.00
2022-09-23T17:18:39.584Z,99062.69
2022-09-23T17:21:07.722Z,99059.84
2022-09-23T17:23:35.911Z,99060.59
2022-09-23T17:26:05.575Z,99055.19
2022-09-23T17:31:18.496Z,99035.00
2022-09-23T17:33:45.993Z,99020.59
2022-09-23T17:36:14.097Z,99028.66
2022-09-23T17:38:45.298Z,99039.34
2022-09-23T17:41:14.209Z,99032.72
2022-09-23T17:46:26.921Z,99029.69
2022-09-23T17:51:57.797Z,99029.31
2022-09-23T17:54:25.016Z,99031.41
2022-09-23T17:56:52.227Z,99027.91
2022-09-23T17:59:19.505Z,99026.09
2022-09-23T18:01:46.622Z,99032.16
2022-09-23T18:04:14.272Z,99025.53
2022-09-23T18:06:41.694Z,99026.19
2022-09-23T18:09:09.596Z,99025.91
2022-09-23T18:11:41.986Z,99026.94
2022-09-23T18:14:14.666Z,99026.81
2022-09-23T18:16:42.956Z,99024.09
2022-09-23T18:19:11.730Z,99017.00
2022-09-23T18:21:41.304Z,99022.75
2022-09-23T18:27:00.024Z,99012.91
2022-09-23T18:29:27.728Z,99004.19
2022-09-23T18:34:39.834Z,99006.56
2022-09-23T18:37:15.250Z,99000.88
2022-09-23T18:39:43.557Z,98999.94
2022-09-23T18:42:11.174Z,98999.47
2022-09-23T18:44:38.375Z,98990.66
2022-09-23T18:47:05.905Z,98995.56
2022-09-23T18:49:51.691Z,98992.28
2022-09-23T18:52:20.364Z,98987.44
2022-09-23T18:54:49.103Z,98984.13
2022-09-23T18:57:18.929Z,98979.28
2022-09-23T18:59:47.665Z,98983.63
2022-09-23T19:02:15.647Z,98978.91
2022-09-23T19:04:42.830Z,98971.81
2022-09-23T19:07:10.293Z,98971.06
2022-09-23T19:09:37.587Z,98967.38
2022-09-23T19:12:05.095Z,98961.50
2022-09-23T19:14:32.717Z,98958.75
2022-09-23T19:17:00.068Z,98959.59
2022-09-23T19:19:29.041Z,98959.59
2022-09-23T19:21:56.696Z,98955.31
2022-09-23T19:24:23.952Z,98959.78
2022-09-23T19:26:51.401Z,98956.38
2022-09-23T19:29:22.249Z,98963.78
2022-09-23T19:31:49.638Z,98956.94
2022-09-23T19:34:23.949Z,98945.94
2022-09-23T19:36:52.942Z,98945.47
2022-09-23T19:39:21.243Z,98943.69
2022-09-23T19:41:49.185Z,98942.63
2022-09-23T19:44:16.999Z,98939.06
2022-09-23T19:46:45.807Z,98935.72
2022-09-23T19:49:14.080Z,98932.41
2022-09-23T19:51:41.626Z,98927.97
2022-09-23T19:54:09.388Z,98916.41
2022-09-23T19:56:36.917Z,98921.53
2022-09-23T19:59:07.033Z,98907.59
2022-09-23T20:01:34.589Z,98910.72
2022-09-23T20:04:02.263Z,98905.34
2022-09-23T20:06:34.128Z,98903.16
2022-09-23T20:09:02.088Z,98903.50
2022-09-23T20:11:29.561Z,98898.00
2022-09-23T20:14:01.911Z,98896.13
2022-09-23T20:16:32.635Z,98887.13
2022-09-23T20:19:01.005Z,98884.19
2022-09-23T20:21:29.503Z,98870.63
2022-09-23T20:23:57.485Z,98874.13
2022-09-23T20:26:43.221Z,98869.66
2022-09-23T20:29:11.508Z,98866.03
2022-09-23T20:31:40.705Z,98856.19
2022-09-23T20:34:10.246Z,98854.25
2022-09-23T20:36:38.205Z,98856.91
2022-09-23T20:39:06.206Z,98850.63
2022-09-23T20:41:37.484Z,98847.78
2022-09-23T20:44:06.587Z,98849.56
2022-09-23T20:46:34.609Z,98839.06
2022-09-23T20:49:02.283Z,98840.66
2022-09-23T20:51:29.904Z,98837.91
2022-09-23T20:53:57.269Z,98839.50
2022-09-23T20:56:25.479Z,98833.75
2022-09-23T20:58:54.359Z,98831.31
2022-09-23T21:01:22.168Z,98824.00
2022-09-23T21:03:50.338Z,98824.72
2022-09-23T21:06:19.169Z,98819.75
2022-09-23T21:08:46.866Z,98821.34
2022-09-23T21:11:16.087Z,98816.03
2022-09-23T21:13:47.385Z,98811.78
2022-09-23T21:16:17.940Z,98808.34
2022-09-23T21:18:45.757Z,98815.56
2022-09-23T21:21:14.400Z,98801.09
2022-09-23T21:23:42.919Z,98794.41
2022-09-23T21:26:11.542Z,98799.59
2022-09-23T21:28:40.383Z,98789.19
2022-09-23T21:31:09.198Z,98786.06
2022-09-23T21:33:37.634Z,98775.56
2022-09-23T21:36:08.264Z,98784.16
2022-09-23T21:38:36.345Z,98772.06
2022-09-23T21:41:05.152Z,98699.47
2022-09-23T21:43:34.246Z,98763.56
2022-09-23T21:46:02.697Z,98763.34
2022-09-23T21:48:29.836Z,98765.81
2022-09-23T21:50:58.215Z,98761.34
2022-09-23T21:53:26.176Z,98754.44
2022-09-23T21:55:53.495Z,98747.84
2022-09-23T21:58:21.983Z,98762.03
2022-09-23T22:00:49.361Z,98749.84
2022-09-23T22:03:16.688Z,98753.25
2022-09-23T22:05:44.339Z,98745.50
2022-09-23T22:08:11.635Z,98739.09
2022-09-23T22:10:39.486Z,98734.47
2022-09-23T22:13:12.589Z,98728.50
2022-09-23T22:15:40.163Z,98726.06
2022-09-23T22:18:08.172Z,98722.75
2022-09-23T22:20:35.824Z,98711.13
2022-09-23T22:23:03.127Z,98702.88
2022-09-23T22:25:30.366Z,98704.56
2022-09-23T22:28:16.387Z,98699.34
2022-09-23T22:31:02.561Z,98692.38
2022-09-23T22:33:30.080Z,98687.06
2022-09-23T22:36:03.938Z,98686.31
2022-09-23T22:38:31.488Z,98683.78
2022-09-23T22:41:00.081Z,98677.72
2022-09-23T22:43:27.579Z,98673.38
2022-09-23T22:45:55.131Z,98675.16
2022-09-23T22:48:22.374Z,98667.41
2022-09-23T22:50:49.532Z,98674.59
2022-09-23T22:53:17.128Z,98667.53
2022-09-23T22:55:44.629Z,98666.47
2022-09-23T22:58:31.113Z,98653.09
2022-09-23T23:00:59.455Z,98653.66
2022-09-23T23:03:27.191Z,98646.47
2022-09-23T23:05:57.735Z,98641.03
2022-09-23T23:08:25.305Z,98637.56
2022-09-23T23:10:55.233Z,98627.34
2022-09-23T23:13:22.551Z,98632.03
2022-09-23T23:15:50.009Z,98625.13
2022-09-23T23:18:17.282Z,98623.31
2022-09-23T23:20:44.748Z,98615.25
2022-09-23T23:23:13.017Z,98608.25
2022-09-23T23:25:40.503Z,98609.88
2022-09-23T23:28:07.639Z,98608.91
2022-09-23T23:30:35.287Z,98599.25
2022-09-23T23:33:02.451Z,98598.31
2022-09-23T23:35:29.795Z,98594.81
2022-09-23T23:37:57.101Z,98586.22
2022-09-23T23:40:24.796Z,98582.19
2022-09-23T23:42:52.061Z,98575.38
2022-09-23T23:45:19.281Z,98569.44
2022-09-23T23:47:46.768Z,98566.03
2022-09-23T23:50:14.340Z,98568.78
2022-09-23T23:52:41.762Z,98555.84
2022-09-23T23:55:09.448Z,98547.22
2022-09-23T23:57:38.121Z,98548.19
